sensor_id;sensor_type;location;lat;lon;timestamp;P1;P2;P0
49454;PMS5003;49011;64.658;21.218;2022-08-19T00:01:28;2;2;
49454;PMS5003;49011;64.658;21.218;2022-08-19T00:03:56;2;2;
49454;PMS5003;49011;64.658;21.218;2022-08-19T00:06:23;4;2;
49454;PMS5003;49011;64.658;21.218;2022-08-19T00:08:50;2;2;
49454;PMS5003;49011;64.658;21.218;2022-08-19T00:11:18;2;2;
49454;PMS5003;49011;64.658;21.218;2022-08-19T00:13:46;2;2;
49454;PMS5003;49011;64.658;21.218;2022-08-19T00:16:13;3;3;
49454;PMS5003;49011;64.658;21.218;2022-08-19T00:18:40;3;2;
49454;PMS5003;49011;64.658;21.218;2022-08-19T00:21:08;2;2;
49454;PMS5003;49011;64.658;21.218;2022-08-19T00:23:35;2;2;
49454;PMS5003;49011;64.658;21.218;2022-08-19T00:26:03;4;4;
49454;PMS5003;49011;64.658;21.218;2022-08-19T00:28:31;4;3;
49454;PMS5003;49011;64.658;21.218;2022-08-19T00:30:59;2;2;
49454;PMS5003;49011;64.658;21.218;2022-08-19T00:33:27;1;1;
49454;PMS5003;49011;64.658;21.218;2022-08-19T00:35:55;2;2;
49454;PMS5003;49011;64.658;21.218;2022-08-19T00:38:22;3;2;
49454;PMS5003;49011;64.658;21.218;2022-08-19T00:40:49;2;2;
49454;PMS5003;49011;64.658;21.218;2022-08-19T00:43:18;3;3;
49454;PMS5003;49011;64.658;21.218;2022-08-19T00:45:47;2;2;
49454;PMS5003;49011;64.658;21.218;2022-08-19T00:48:15;3;3;
49454;PMS5003;49011;64.658;21.218;2022-08-19T00:50:44;2;2;
49454;PMS5003;49011;64.658;21.218;2022-08-19T00:53:14;4;3;
49454;PMS5003;49011;64.658;21.218;2022-08-19T00:55:44;2;2;
49454;PMS5003;49011;64.658;21.218;2022-08-19T00:58:13;3;3;
49454;PMS5003;49011;64.658;21.218;2022-08-19T01:00:43;2;2;
49454;PMS5003;49011;64.658;21.218;2022-08-19T01:03:12;3;3;
49454;PMS5003;49011;64.658;21.218;2022-08-19T01:05:43;2;2;
49454;PMS5003;49011;64.658;21.218;2022-08-19T01:08:13;3;3;
49454;PMS5003;49011;64.658;21.218;2022-08-19T01:10:43;3;3;
49454;PMS5003;49011;64.658;21.218;2022-08-19T01:13:14;3;3;
49454;PMS5003;49011;64.658;21.218;2022-08-19T01:15:45;3;3;
49454;PMS5003;49011;64.658;21.218;2022-08-19T01:18:17;2;2;
49454;PMS5003;49011;64.658;21.218;2022-08-19T01:20:45;3;3;
49454;PMS5003;49011;64.658;21.218;2022-08-19T01:23:14;3;3;
49454;PMS5003;49011;64.658;21.218;2022-08-19T01:25:42;2;2;
49454;PMS5003;49011;64.658;21.218;2022-08-19T01:28:15;2;2;
49454;PMS5003;49011;64.658;21.218;2022-08-19T01:30:45;4;4;
49454;PMS5003;49011;64.658;21.218;2022-08-19T01:33:13;2;2;
49454;PMS5003;49011;64.658;21.218;2022-08-19T01:35:41;2;2;
49454;PMS5003;49011;64.658;21.218;2022-08-19T01:38:10;3;3;
49454;PMS5003;49011;64.658;21.218;2022-08-19T01:40:47;2;2;
49454;PMS5003;49011;64.658;21.218;2022-08-19T01:43:14;3;3;
49454;PMS5003;49011;64.658;21.218;2022-08-19T01:45:42;3;3;
49454;PMS5003;49011;64.658;21.218;2022-08-19T01:48:09;3;3;
49454;PMS5003;49011;64.658;21.218;2022-08-19T01:50:36;4;4;
49454;PMS5003;49011;64.658;21.218;2022-08-19T01:53:04;3;3;
49454;PMS5003;49011;64.658;21.218;2022-08-19T01:55:34;4;4;
49454;PMS5003;49011;64.658;21.218;2022-08-19T01:58:03;4;4;
49454;PMS5003;49011;64.658;21.218;2022-08-19T02:00:32;2;2;
49454;PMS5003;49011;64.658;21.218;2022-08-19T02:03:00;3;3;
49454;PMS5003;49011;64.658;21.218;2022-08-19T02:05:28;2;2;
49454;PMS5003;49011;64.658;21.218;2022-08-19T02:07:55;2;2;
49454;PMS5003;49011;64.658;21.218;2022-08-19T02:10:23;4;4;
49454;PMS5003;49011;64.658;21.218;2022-08-19T02:12:50;3;3;
49454;PMS5003;49011;64.658;21.218;2022-08-19T02:15:19;4;4;
49454;PMS5003;49011;64.658;21.218;2022-08-19T02:17:47;3;3;
49454;PMS5003;49011;64.658;21.218;2022-08-19T02:20:15;3;3;
49454;PMS5003;49011;64.658;21.218;2022-08-19T02:22:42;3;3;
49454;PMS5003;49011;64.658;21.218;2022-08-19T02:25:10;5;4;
49454;PMS5003;49011;64.658;21.218;2022-08-19T02:27:41;4;4;
49454;PMS5003;49011;64.658;21.218;2022-08-19T02:30:10;3;3;
49454;PMS5003;49011;64.658;21.218;2022-08-19T02:32:40;4;4;
49454;PMS5003;49011;64.658;21.218;2022-08-19T02:35:08;4;3;
49454;PMS5003;49011;64.658;21.218;2022-08-19T02:37:36;4;4;
49454;PMS5003;49011;64.658;21.218;2022-08-19T02:40:04;3;3;
49454;PMS5003;49011;64.658;21.218;2022-08-19T02:42:32;3;3;
49454;PMS5003;49011;64.658;21.218;2022-08-19T02:44:59;4;4;
49454;PMS5003;49011;64.658;21.218;2022-08-19T02:47:27;3;3;
49454;PMS5003;49011;64.658;21.218;2022-08-19T02:49:54;2;2;
49454;PMS5003;49011;64.658;21.218;2022-08-19T02:52:21;3;3;
49454;PMS5003;49011;64.658;21.218;2022-08-19T02:54:49;3;3;
49454;PMS5003;49011;64.658;21.218;2022-08-19T02:57:16;4;4;
49454;PMS5003;49011;64.658;21.218;2022-08-19T02:59:44;2;2;
49454;PMS5003;49011;64.658;21.218;2022-08-19T03:02:11;3;3;
49454;PMS5003;49011;64.658;21.218;2022-08-19T03:04:38;4;4;
49454;PMS5003;49011;64.658;21.218;2022-08-19T03:07:05;6;5;
49454;PMS5003;49011;64.658;21.218;2022-08-19T03:09:33;5;5;
49454;PMS5003;49011;64.658;21.218;2022-08-19T03:12:04;7;7;
49454;PMS5003;49011;64.658;21.218;2022-08-19T03:14:32;4;4;
49454;PMS5003;49011;64.658;21.218;2022-08-19T03:17:00;5;4;
49454;PMS5003;49011;64.658;21.218;2022-08-19T03:19:27;5;5;
49454;PMS5003;49011;64.658;21.218;2022-08-19T03:21:54;6;4;
49454;PMS5003;49011;64.658;21.218;2022-08-19T03:24:22;8;5;
49454;PMS5003;49011;64.658;21.218;2022-08-19T03:26:53;3;3;
49454;PMS5003;49011;64.658;21.218;2022-08-19T03:29:21;5;4;
49454;PMS5003;49011;64.658;21.218;2022-08-19T03:31:49;3;3;
49454;PMS5003;49011;64.658;21.218;2022-08-19T03:34:21;8;6;
49454;PMS5003;49011;64.658;21.218;2022-08-19T03:36:51;10;7;
49454;PMS5003;49011;64.658;21.218;2022-08-19T03:39:19;7;7;
49454;PMS5003;49011;64.658;21.218;2022-08-19T03:41:47;6;4;
49454;PMS5003;49011;64.658;21.218;2022-08-19T03:44:17;3;3;
49454;PMS5003;49011;64.658;21.218;2022-08-19T03:46:46;9;7;
49454;PMS5003;49011;64.658;21.218;2022-08-19T03:49:14;6;5;
49454;PMS5003;49011;64.658;21.218;2022-08-19T03:51:42;7;6;
49454;PMS5003;49011;64.658;21.218;2022-08-19T03:54:11;3;3;
49454;PMS5003;49011;64.658;21.218;2022-08-19T03:56:42;4;4;
49454;PMS5003;49011;64.658;21.218;2022-08-19T03:59:12;4;4;
49454;PMS5003;49011;64.658;21.218;2022-08-19T04:01:41;4;4;
49454;PMS5003;49011;64.658;21.218;2022-08-19T04:04:09;5;5;
49454;PMS5003;49011;64.658;21.218;2022-08-19T04:06:37;5;5;
49454;PMS5003;49011;64.658;21.218;2022-08-19T04:09:06;8;8;
49454;PMS5003;49011;64.658;21.218;2022-08-19T04:11:36;5;5;
49454;PMS5003;49011;64.658;21.218;2022-08-19T04:14:06;5;5;
49454;PMS5003;49011;64.658;21.218;2022-08-19T04:16:34;7;5;
49454;PMS5003;49011;64.658;21.218;2022-08-19T04:19:02;7;6;
49454;PMS5003;49011;64.658;21.218;2022-08-19T04:21:31;7;5;
49454;PMS5003;49011;64.658;21.218;2022-08-19T04:23:59;8;8;
49454;PMS5003;49011;64.658;21.218;2022-08-19T04:26:27;7;7;
49454;PMS5003;49011;64.658;21.218;2022-08-19T04:28:57;6;6;
49454;PMS5003;49011;64.658;21.218;2022-08-19T04:31:26;4;4;
49454;PMS5003;49011;64.658;21.218;2022-08-19T04:33:57;7;6;
49454;PMS5003;49011;64.658;21.218;2022-08-19T04:36:27;5;5;
49454;PMS5003;49011;64.658;21.218;2022-08-19T04:38:56;7;7;
49454;PMS5003;49011;64.658;21.218;2022-08-19T04:41:26;4;3;
49454;PMS5003;49011;64.658;21.218;2022-08-19T04:43:54;4;4;
49454;PMS5003;49011;64.658;21.218;2022-08-19T04:46:21;6;6;
49454;PMS5003;49011;64.658;21.218;2022-08-19T04:48:50;7;7;
49454;PMS5003;49011;64.658;21.218;2022-08-19T04:51:19;8;8;
49454;PMS5003;49011;64.658;21.218;2022-08-19T04:53:46;8;8;
49454;PMS5003;49011;64.658;21.218;2022-08-19T04:56:14;9;7;
49454;PMS5003;49011;64.658;21.218;2022-08-19T04:58:44;8;7;
49454;PMS5003;49011;64.658;21.218;2022-08-19T05:01:12;8;7;
49454;PMS5003;49011;64.658;21.218;2022-08-19T05:03:41;7;6;
49454;PMS5003;49011;64.658;21.218;2022-08-19T05:06:10;8;7;
49454;PMS5003;49011;64.658;21.218;2022-08-19T05:08:40;8;7;
49454;PMS5003;49011;64.658;21.218;2022-08-19T05:11:09;9;7;
49454;PMS5003;49011;64.658;21.218;2022-08-19T05:13:40;10;8;
49454;PMS5003;49011;64.658;21.218;2022-08-19T05:16:10;8;7;
49454;PMS5003;49011;64.658;21.218;2022-08-19T05:18:39;10;8;
49454;PMS5003;49011;64.658;21.218;2022-08-19T05:21:07;10;8;
49454;PMS5003;49011;64.658;21.218;2022-08-19T05:23:36;8;7;
49454;PMS5003;49011;64.658;21.218;2022-08-19T05:26:04;12;11;
49454;PMS5003;49011;64.658;21.218;2022-08-19T05:28:32;11;10;
49454;PMS5003;49011;64.658;21.218;2022-08-19T05:30:59;12;10;
49454;PMS5003;49011;64.658;21.218;2022-08-19T05:33:27;9;9;
49454;PMS5003;49011;64.658;21.218;2022-08-19T05:35:54;12;10;
49454;PMS5003;49011;64.658;21.218;2022-08-19T05:38:21;10;9;
49454;PMS5003;49011;64.658;21.218;2022-08-19T05:40:48;7;6;
49454;PMS5003;49011;64.658;21.218;2022-08-19T05:43:16;15;10;
49454;PMS5003;49011;64.658;21.218;2022-08-19T05:45:44;10;9;
49454;PMS5003;49011;64.658;21.218;2022-08-19T05:48:12;12;10;
49454;PMS5003;49011;64.658;21.218;2022-08-19T05:50:41;9;9;
49454;PMS5003;49011;64.658;21.218;2022-08-19T05:53:08;12;11;
49454;PMS5003;49011;64.658;21.218;2022-08-19T05:55:36;11;10;
49454;PMS5003;49011;64.658;21.218;2022-08-19T05:58:04;15;11;
49454;PMS5003;49011;64.658;21.218;2022-08-19T06:00:31;10;10;
49454;PMS5003;49011;64.658;21.218;2022-08-19T06:02:59;11;10;
49454;PMS5003;49011;64.658;21.218;2022-08-19T06:05:27;13;11;
49454;PMS5003;49011;64.658;21.218;2022-08-19T06:07:54;12;10;
49454;PMS5003;49011;64.658;21.218;2022-08-19T06:10:22;12;11;
49454;PMS5003;49011;64.658;21.218;2022-08-19T06:12:50;16;14;
49454;PMS5003;49011;64.658;21.218;2022-08-19T06:15:17;12;11;
49454;PMS5003;49011;64.658;21.218;2022-08-19T06:17:44;11;10;
49454;PMS5003;49011;64.658;21.218;2022-08-19T06:20:13;15;12;
49454;PMS5003;49011;64.658;21.218;2022-08-19T06:22:42;13;11;
49454;PMS5003;49011;64.658;21.218;2022-08-19T06:25:11;10;10;
49454;PMS5003;49011;64.658;21.218;2022-08-19T06:27:41;11;11;
49454;PMS5003;49011;64.658;21.218;2022-08-19T06:30:09;11;10;
49454;PMS5003;49011;64.658;21.218;2022-08-19T06:32:37;10;9;
49454;PMS5003;49011;64.658;21.218;2022-08-19T06:35:04;15;13;
49454;PMS5003;49011;64.658;21.218;2022-08-19T06:37:33;9;8;
49454;PMS5003;49011;64.658;21.218;2022-08-19T06:40:00;12;11;
49454;PMS5003;49011;64.658;21.218;2022-08-19T06:42:27;11;10;
49454;PMS5003;49011;64.658;21.218;2022-08-19T06:44:55;15;15;
49454;PMS5003;49011;64.658;21.218;2022-08-19T06:47:23;12;12;
49454;PMS5003;49011;64.658;21.218;2022-08-19T06:49:52;11;10;
49454;PMS5003;49011;64.658;21.218;2022-08-19T06:52:20;12;12;
49454;PMS5003;49011;64.658;21.218;2022-08-19T06:54:48;15;12;
49454;PMS5003;49011;64.658;21.218;2022-08-19T06:57:15;13;13;
49454;PMS5003;49011;64.658;21.218;2022-08-19T06:59:43;11;11;
49454;PMS5003;49011;64.658;21.218;2022-08-19T07:02:10;15;14;
49454;PMS5003;49011;64.658;21.218;2022-08-19T07:04:37;11;11;
49454;PMS5003;49011;64.658;21.218;2022-08-19T07:07:06;13;11;
49454;PMS5003;49011;64.658;21.218;2022-08-19T07:09:34;13;12;
49454;PMS5003;49011;64.658;21.218;2022-08-19T07:12:03;16;12;
49454;PMS5003;49011;64.658;21.218;2022-08-19T07:14:32;13;11;
49454;PMS5003;49011;64.658;21.218;2022-08-19T07:17:01;15;12;
49454;PMS5003;49011;64.658;21.218;2022-08-19T07:19:29;18;17;
49454;PMS5003;49011;64.658;21.218;2022-08-19T07:21:56;13;12;
49454;PMS5003;49011;64.658;21.218;2022-08-19T07:24:25;18;17;
49454;PMS5003;49011;64.658;21.218;2022-08-19T07:26:54;18;14;
49454;PMS5003;49011;64.658;21.218;2022-08-19T07:29:23;17;16;
49454;PMS5003;49011;64.658;21.218;2022-08-19T07:31:50;21;18;
49454;PMS5003;49011;64.658;21.218;2022-08-19T07:34:19;17;15;
49454;PMS5003;49011;64.658;21.218;2022-08-19T07:36:46;14;13;
49454;PMS5003;49011;64.658;21.218;2022-08-19T07:39:15;20;19;
49454;PMS5003;49011;64.658;21.218;2022-08-19T07:41:45;12;12;
49454;PMS5003;49011;64.658;21.218;2022-08-19T07:44:14;20;17;
49454;PMS5003;49011;64.658;21.218;2022-08-19T07:46:42;21;20;
49454;PMS5003;49011;64.658;21.218;2022-08-19T07:49:13;14;14;
49454;PMS5003;49011;64.658;21.218;2022-08-19T07:51:40;14;13;
49454;PMS5003;49011;64.658;21.218;2022-08-19T07:54:08;17;15;
49454;PMS5003;49011;64.658;21.218;2022-08-19T07:56:35;26;22;
49454;PMS5003;49011;64.658;21.218;2022-08-19T07:59:03;24;23;
49454;PMS5003;49011;64.658;21.218;2022-08-19T08:01:30;22;19;
49454;PMS5003;49011;64.658;21.218;2022-08-19T08:03:57;16;14;
49454;PMS5003;49011;64.658;21.218;2022-08-19T08:06:25;20;19;
49454;PMS5003;49011;64.658;21.218;2022-08-19T08:08:52;21;17;
49454;PMS5003;49011;64.658;21.218;2022-08-19T08:11:20;18;17;
49454;PMS5003;49011;64.658;21.218;2022-08-19T08:13:48;17;16;
49454;PMS5003;49011;64.658;21.218;2022-08-19T08:16:15;20;18;
49454;PMS5003;49011;64.658;21.218;2022-08-19T08:18:43;26;19;
49454;PMS5003;49011;64.658;21.218;2022-08-19T08:21:10;19;17;
49454;PMS5003;49011;64.658;21.218;2022-08-19T08:23:36;19;18;
49454;PMS5003;49011;64.658;21.218;2022-08-19T08:26:03;24;22;
49454;PMS5003;49011;64.658;21.218;2022-08-19T08:28:31;19;18;
49454;PMS5003;49011;64.658;21.218;2022-08-19T08:30:59;14;14;
49454;PMS5003;49011;64.658;21.218;2022-08-19T08:33:27;25;21;
49454;PMS5003;49011;64.658;21.218;2022-08-19T08:35:56;17;15;
49454;PMS5003;49011;64.658;21.218;2022-08-19T08:38:24;13;13;
49454;PMS5003;49011;64.658;21.218;2022-08-19T08:40:52;18;15;
49454;PMS5003;49011;64.658;21.218;2022-08-19T08:43:27;18;15;
49454;PMS5003;49011;64.658;21.218;2022-08-19T08:45:59;19;18;
49454;PMS5003;49011;64.658;21.218;2022-08-19T08:48:34;16;16;
49454;PMS5003;49011;64.658;21.218;2022-08-19T08:51:07;14;13;
49454;PMS5003;49011;64.658;21.218;2022-08-19T08:53:39;17;17;
49454;PMS5003;49011;64.658;21.218;2022-08-19T08:56:08;15;15;
49454;PMS5003;49011;64.658;21.218;2022-08-19T08:58:41;16;14;
49454;PMS5003;49011;64.658;21.218;2022-08-19T09:01:15;18;15;
49454;PMS5003;49011;64.658;21.218;2022-08-19T09:03:43;10;8;
49454;PMS5003;49011;64.658;21.218;2022-08-19T09:06:12;16;15;
49454;PMS5003;49011;64.658;21.218;2022-08-19T09:08:48;18;14;
49454;PMS5003;49011;64.658;21.218;2022-08-19T09:11:25;18;16;
49454;PMS5003;49011;64.658;21.218;2022-08-19T09:14:06;13;13;
49454;PMS5003;49011;64.658;21.218;2022-08-19T09:16:42;19;15;
49454;PMS5003;49011;64.658;21.218;2022-08-19T09:19:09;19;16;
49454;PMS5003;49011;64.658;21.218;2022-08-19T09:21:36;19;18;
49454;PMS5003;49011;64.658;21.218;2022-08-19T09:24:04;21;21;
49454;PMS5003;49011;64.658;21.218;2022-08-19T09:26:32;16;15;
49454;PMS5003;49011;64.658;21.218;2022-08-19T09:29:00;17;16;
49454;PMS5003;49011;64.658;21.218;2022-08-19T09:31:28;13;12;
49454;PMS5003;49011;64.658;21.218;2022-08-19T09:33:56;16;14;
49454;PMS5003;49011;64.658;21.218;2022-08-19T09:36:25;17;17;
49454;PMS5003;49011;64.658;21.218;2022-08-19T09:38:54;17;17;
49454;PMS5003;49011;64.658;21.218;2022-08-19T09:41:23;18;17;
49454;PMS5003;49011;64.658;21.218;2022-08-19T09:43:52;18;17;
49454;PMS5003;49011;64.658;21.218;2022-08-19T09:46:21;20;20;
49454;PMS5003;49011;64.658;21.218;2022-08-19T09:49:40;21;20;
49454;PMS5003;49011;64.658;21.218;2022-08-19T09:52:08;16;16;
49454;PMS5003;49011;64.658;21.218;2022-08-19T09:54:36;18;17;
49454;PMS5003;49011;64.658;21.218;2022-08-19T09:57:03;19;18;
49454;PMS5003;49011;64.658;21.218;2022-08-19T09:59:31;13;13;
49454;PMS5003;49011;64.658;21.218;2022-08-19T10:01:59;18;17;
49454;PMS5003;49011;64.658;21.218;2022-08-19T10:04:26;13;12;
49454;PMS5003;49011;64.658;21.218;2022-08-19T10:06:55;22;21;
49454;PMS5003;49011;64.658;21.218;2022-08-19T10:09:22;22;20;
49454;PMS5003;49011;64.658;21.218;2022-08-19T10:11:50;16;16;
49454;PMS5003;49011;64.658;21.218;2022-08-19T10:14:17;19;18;
49454;PMS5003;49011;64.658;21.218;2022-08-19T10:16:44;25;23;
49454;PMS5003;49011;64.658;21.218;2022-08-19T10:19:11;19;18;
49454;PMS5003;49011;64.658;21.218;2022-08-19T10:21:38;23;20;
49454;PMS5003;49011;64.658;21.218;2022-08-19T10:24:05;18;16;
49454;PMS5003;49011;64.658;21.218;2022-08-19T10:26:34;18;17;
49454;PMS5003;49011;64.658;21.218;2022-08-19T10:29:03;22;20;
49454;PMS5003;49011;64.658;21.218;2022-08-19T10:31:32;25;24;
49454;PMS5003;49011;64.658;21.218;2022-08-19T10:34:00;25;21;
49454;PMS5003;49011;64.658;21.218;2022-08-19T10:36:28;25;21;
49454;PMS5003;49011;64.658;21.218;2022-08-19T10:38:59;32;25;
49454;PMS5003;49011;64.658;21.218;2022-08-19T10:41:28;27;25;
49454;PMS5003;49011;64.658;21.218;2022-08-19T10:43:58;19;18;
49454;PMS5003;49011;64.658;21.218;2022-08-19T10:46:27;29;24;
49454;PMS5003;49011;64.658;21.218;2022-08-19T10:48:55;22;20;
49454;PMS5003;49011;64.658;21.218;2022-08-19T10:51:23;19;18;
49454;PMS5003;49011;64.658;21.218;2022-08-19T10:53:51;21;18;
49454;PMS5003;49011;64.658;21.218;2022-08-19T10:56:19;18;16;
49454;PMS5003;49011;64.658;21.218;2022-08-19T10:58:47;17;16;
49454;PMS5003;49011;64.658;21.218;2022-08-19T11:01:14;25;22;
49454;PMS5003;49011;64.658;21.218;2022-08-19T11:03:41;21;18;
49454;PMS5003;49011;64.658;21.218;2022-08-19T11:06:09;18;18;
49454;PMS5003;49011;64.658;21.218;2022-08-19T11:08:36;26;25;
49454;PMS5003;49011;64.658;21.218;2022-08-19T11:11:04;19;16;
49454;PMS5003;49011;64.658;21.218;2022-08-19T11:13:33;21;20;
49454;PMS5003;49011;64.658;21.218;2022-08-19T11:16:04;17;17;
49454;PMS5003;49011;64.658;21.218;2022-08-19T11:18:34;15;15;
49454;PMS5003;49011;64.658;21.218;2022-08-19T11:21:05;17;17;
49454;PMS5003;49011;64.658;21.218;2022-08-19T11:23:34;19;19;
49454;PMS5003;49011;64.658;21.218;2022-08-19T11:26:01;17;17;
49454;PMS5003;49011;64.658;21.218;2022-08-19T11:28:29;22;21;
49454;PMS5003;49011;64.658;21.218;2022-08-19T11:30:56;13;12;
49454;PMS5003;49011;64.658;21.218;2022-08-19T11:33:23;11;11;
49454;PMS5003;49011;64.658;21.218;2022-08-19T11:35:50;11;11;
49454;PMS5003;49011;64.658;21.218;2022-08-19T11:38:17;16;15;
49454;PMS5003;49011;64.658;21.218;2022-08-19T11:40:45;11;11;
49454;PMS5003;49011;64.658;21.218;2022-08-19T11:43:20;13;12;
49454;PMS5003;49011;64.658;21.218;2022-08-19T11:45:47;12;12;
49454;PMS5003;49011;64.658;21.218;2022-08-19T11:48:14;10;10;
49454;PMS5003;49011;64.658;21.218;2022-08-19T11:50:41;13;12;
49454;PMS5003;49011;64.658;21.218;2022-08-19T11:53:08;10;10;
49454;PMS5003;49011;64.658;21.218;2022-08-19T11:55:36;12;11;
49454;PMS5003;49011;64.658;21.218;2022-08-19T11:58:04;14;14;
49454;PMS5003;49011;64.658;21.218;2022-08-19T12:00:31;10;10;
49454;PMS5003;49011;64.658;21.218;2022-08-19T12:02:58;13;12;
49454;PMS5003;49011;64.658;21.218;2022-08-19T12:05:26;13;11;
49454;PMS5003;49011;64.658;21.218;2022-08-19T12:07:54;11;10;
49454;PMS5003;49011;64.658;21.218;2022-08-19T12:10:21;10;10;
49454;PMS5003;49011;64.658;21.218;2022-08-19T12:12:49;11;11;
49454;PMS5003;49011;64.658;21.218;2022-08-19T12:15:17;10;10;
49454;PMS5003;49011;64.658;21.218;2022-08-19T12:17:44;11;10;
49454;PMS5003;49011;64.658;21.218;2022-08-19T12:20:11;11;10;
49454;PMS5003;49011;64.658;21.218;2022-08-19T12:22:39;19;18;
49454;PMS5003;49011;64.658;21.218;2022-08-19T12:25:08;13;12;
49454;PMS5003;49011;64.658;21.218;2022-08-19T12:27:37;13;12;
49454;PMS5003;49011;64.658;21.218;2022-08-19T12:30:06;12;12;
49454;PMS5003;49011;64.658;21.218;2022-08-19T12:32:35;15;13;
49454;PMS5003;49011;64.658;21.218;2022-08-19T12:35:05;13;13;
49454;PMS5003;49011;64.658;21.218;2022-08-19T12:37:33;13;13;
49454;PMS5003;49011;64.658;21.218;2022-08-19T12:40:01;14;14;
49454;PMS5003;49011;64.658;21.218;2022-08-19T12:42:29;11;11;
49454;PMS5003;49011;64.658;21.218;2022-08-19T12:44:56;15;13;
49454;PMS5003;49011;64.658;21.218;2022-08-19T12:47:24;13;13;
49454;PMS5003;49011;64.658;21.218;2022-08-19T12:49:51;13;13;
49454;PMS5003;49011;64.658;21.218;2022-08-19T12:52:18;13;13;
49454;PMS5003;49011;64.658;21.218;2022-08-19T12:54:46;15;15;
49454;PMS5003;49011;64.658;21.218;2022-08-19T12:57:13;15;14;
49454;PMS5003;49011;64.658;21.218;2022-08-19T12:59:40;14;13;
49454;PMS5003;49011;64.658;21.218;2022-08-19T13:02:08;14;14;
49454;PMS5003;49011;64.658;21.218;2022-08-19T13:04:36;14;14;
49454;PMS5003;49011;64.658;21.218;2022-08-19T13:07:04;15;15;
49454;PMS5003;49011;64.658;21.218;2022-08-19T13:09:31;13;13;
49454;PMS5003;49011;64.658;21.218;2022-08-19T13:11:58;12;10;
49454;PMS5003;49011;64.658;21.218;2022-08-19T13:14:26;12;12;
49454;PMS5003;49011;64.658;21.218;2022-08-19T13:16:53;16;16;
49454;PMS5003;49011;64.658;21.218;2022-08-19T13:19:20;20;19;
49454;PMS5003;49011;64.658;21.218;2022-08-19T13:21:49;18;16;
49454;PMS5003;49011;64.658;21.218;2022-08-19T13:24:17;16;15;
49454;PMS5003;49011;64.658;21.218;2022-08-19T13:26:44;14;13;
49454;PMS5003;49011;64.658;21.218;2022-08-19T13:29:12;14;13;
49454;PMS5003;49011;64.658;21.218;2022-08-19T13:31:40;18;15;
49454;PMS5003;49011;64.658;21.218;2022-08-19T13:34:08;13;12;
49454;PMS5003;49011;64.658;21.218;2022-08-19T13:36:36;16;15;
49454;PMS5003;49011;64.658;21.218;2022-08-19T13:39:05;14;14;
49454;PMS5003;49011;64.658;21.218;2022-08-19T13:41:33;14;13;
49454;PMS5003;49011;64.658;21.218;2022-08-19T13:44:01;12;12;
49454;PMS5003;49011;64.658;21.218;2022-08-19T13:46:29;14;14;
49454;PMS5003;49011;64.658;21.218;2022-08-19T13:48:57;15;14;
49454;PMS5003;49011;64.658;21.218;2022-08-19T13:51:25;12;12;
49454;PMS5003;49011;64.658;21.218;2022-08-19T13:53:52;22;21;
49454;PMS5003;49011;64.658;21.218;2022-08-19T13:56:20;19;19;
49454;PMS5003;49011;64.658;21.218;2022-08-19T13:58:47;18;14;
49454;PMS5003;49011;64.658;21.218;2022-08-19T14:01:18;16;16;
49454;PMS5003;49011;64.658;21.218;2022-08-19T14:03:47;17;17;
49454;PMS5003;49011;64.658;21.218;2022-08-19T14:06:15;17;17;
49454;PMS5003;49011;64.658;21.218;2022-08-19T14:08:43;18;18;
49454;PMS5003;49011;64.658;21.218;2022-08-19T14:11:10;13;13;
49454;PMS5003;49011;64.658;21.218;2022-08-19T14:13:38;16;16;
49454;PMS5003;49011;64.658;21.218;2022-08-19T14:16:06;17;16;
49454;PMS5003;49011;64.658;21.218;2022-08-19T14:18:35;16;14;
49454;PMS5003;49011;64.658;21.218;2022-08-19T14:21:03;17;17;
49454;PMS5003;49011;64.658;21.218;2022-08-19T14:23:30;18;18;
49454;PMS5003;49011;64.658;21.218;2022-08-19T14:26:07;58;53;
49454;PMS5003;49011;64.658;21.218;2022-08-19T14:28:34;18;17;
49454;PMS5003;49011;64.658;21.218;2022-08-19T14:31:02;19;18;
49454;PMS5003;49011;64.658;21.218;2022-08-19T14:33:29;19;19;
49454;PMS5003;49011;64.658;21.218;2022-08-19T14:35:56;21;19;
49454;PMS5003;49011;64.658;21.218;2022-08-19T14:38:24;21;20;
49454;PMS5003;49011;64.658;21.218;2022-08-19T14:40:51;16;15;
49454;PMS5003;49011;64.658;21.218;2022-08-19T14:43:19;16;16;
49454;PMS5003;49011;64.658;21.218;2022-08-19T14:45:47;19;18;
49454;PMS5003;49011;64.658;21.218;2022-08-19T14:48:14;20;19;
49454;PMS5003;49011;64.658;21.218;2022-08-19T14:50:42;21;20;
49454;PMS5003;49011;64.658;21.218;2022-08-19T14:53:10;21;21;
49454;PMS5003;49011;64.658;21.218;2022-08-19T14:55:41;19;19;
49454;PMS5003;49011;64.658;21.218;2022-08-19T14:58:10;18;18;
49454;PMS5003;49011;64.658;21.218;2022-08-19T15:00:38;23;22;
49454;PMS5003;49011;64.658;21.218;2022-08-19T15:03:06;20;20;
49454;PMS5003;49011;64.658;21.218;2022-08-19T15:05:33;20;20;
49454;PMS5003;49011;64.658;21.218;2022-08-19T15:08:02;20;19;
49454;PMS5003;49011;64.658;21.218;2022-08-19T15:10:30;22;22;
49454;PMS5003;49011;64.658;21.218;2022-08-19T15:12:57;21;20;
49454;PMS5003;49011;64.658;21.218;2022-08-19T15:15:25;20;19;
49454;PMS5003;49011;64.658;21.218;2022-08-19T15:17:53;21;21;
49454;PMS5003;49011;64.658;21.218;2022-08-19T15:20:22;21;20;
49454;PMS5003;49011;64.658;21.218;2022-08-19T15:22:49;22;21;
49454;PMS5003;49011;64.658;21.218;2022-08-19T15:25:18;23;22;
49454;PMS5003;49011;64.658;21.218;2022-08-19T15:27:45;21;19;
49454;PMS5003;49011;64.658;21.218;2022-08-19T15:30:18;20;20;
49454;PMS5003;49011;64.658;21.218;2022-08-19T15:32:47;22;22;
49454;PMS5003;49011;64.658;21.218;2022-08-19T15:35:15;21;21;
49454;PMS5003;49011;64.658;21.218;2022-08-19T15:37:42;21;20;
49454;PMS5003;49011;64.658;21.218;2022-08-19T15:40:10;20;20;
49454;PMS5003;49011;64.658;21.218;2022-08-19T15:42:40;23;23;
49454;PMS5003;49011;64.658;21.218;2022-08-19T15:45:10;24;24;
49454;PMS5003;49011;64.658;21.218;2022-08-19T15:47:40;23;23;
49454;PMS5003;49011;64.658;21.218;2022-08-19T15:50:09;26;24;
49454;PMS5003;49011;64.658;21.218;2022-08-19T15:52:44;21;20;
49454;PMS5003;49011;64.658;21.218;2022-08-19T15:55:12;22;22;
49454;PMS5003;49011;64.658;21.218;2022-08-19T15:57:40;21;21;
49454;PMS5003;49011;64.658;21.218;2022-08-19T16:00:08;21;21;
49454;PMS5003;49011;64.658;21.218;2022-08-19T16:02:35;21;21;
49454;PMS5003;49011;64.658;21.218;2022-08-19T16:05:04;23;21;
49454;PMS5003;49011;64.658;21.218;2022-08-19T16:07:34;21;21;
49454;PMS5003;49011;64.658;21.218;2022-08-19T16:10:01;22;22;
49454;PMS5003;49011;64.658;21.218;2022-08-19T16:12:30;22;21;
49454;PMS5003;49011;64.658;21.218;2022-08-19T16:14:57;23;22;
49454;PMS5003;49011;64.658;21.218;2022-08-19T16:17:26;25;24;
49454;PMS5003;49011;64.658;21.218;2022-08-19T16:19:54;22;22;